createdAt,value
2018-11-21T00:02:00.339Z,103109.71
2018-11-21T00:04:28.929Z,103110.21
2018-11-21T00:06:57.518Z,103107.98
2018-11-21T00:09:26.110Z,103104.87
2018-11-21T00:11:54.867Z,103109.80
2018-11-21T00:14:23.495Z,103116.06
2018-11-21T00:16:52.114Z,103115.18
2018-11-21T00:19:20.804Z,103113.84
2018-11-21T00:21:49.398Z,103108.92
2018-11-21T00:24:18.261Z,103114.77
2018-11-21T00:26:46.945Z,103108.05
2018-11-21T00:29:15.524Z,103100.94
2018-11-21T00:31:44.329Z,103095.55
2018-11-21T00:34:12.950Z,103093.74
2018-11-21T00:36:41.623Z,103104.97
2018-11-21T00:39:11.246Z,103102.28
2018-11-21T00:41:40.128Z,103094.67
2018-11-21T00:44:08.729Z,103101.41
2018-11-21T00:46:37.340Z,103098.71
2018-11-21T00:49:05.998Z,103093.80
2018-11-21T00:51:34.520Z,103100.05
2018-11-21T00:54:03.176Z,103097.37
2018-11-21T00:56:31.760Z,103097.78
2018-11-21T00:59:00.369Z,103107.20
2018-11-21T01:01:29.027Z,103105.34
2018-11-21T01:03:57.598Z,103104.01
2018-11-21T01:06:26.231Z,103108.92
2018-11-21T01:08:54.903Z,103115.27
2018-11-21T01:11:23.491Z,103109.89
2018-11-21T01:13:52.138Z,103116.06
2018-11-21T01:16:20.642Z,103111.14
2018-11-21T01:18:49.303Z,103116.06
2018-11-21T01:21:17.784Z,103112.48
2018-11-21T01:23:46.360Z,103116.06
2018-11-21T01:26:14.982Z,103118.28
2018-11-21T01:28:43.522Z,103113.28
2018-11-21T01:31:12.126Z,103112.40
2018-11-21T01:33:40.743Z,103115.97
2018-11-21T01:36:09.339Z,103112.40
2018-11-21T01:38:37.952Z,103115.97
2018-11-21T01:41:06.548Z,103116.84
2018-11-21T01:43:35.106Z,103120.89
2018-11-21T01:46:03.848Z,103120.89
2018-11-21T01:48:32.460Z,103115.97
2018-11-21T01:51:01.073Z,103127.14
2018-11-21T01:53:29.648Z,103128.49
2018-11-21T01:55:58.220Z,103131.18
2018-11-21T01:58:26.893Z,103128.49
2018-11-21T02:00:55.551Z,103134.25
2018-11-21T02:03:24.446Z,103136.09
2018-11-21T02:05:53.403Z,103134.75
2018-11-21T02:08:22.021Z,103134.34
2018-11-21T02:10:50.595Z,103132.06
2018-11-21T02:13:19.183Z,103128.49
2018-11-21T02:15:47.783Z,103128.02
2018-11-21T02:18:16.358Z,103132.53
2018-11-21T02:20:44.963Z,103125.33
2018-11-21T02:23:13.601Z,103130.72
2018-11-21T02:25:42.231Z,103125.80
2018-11-21T02:28:10.832Z,103125.39
2018-11-21T02:30:39.530Z,103127.14
2018-11-21T02:33:08.112Z,103121.77
2018-11-21T02:35:36.715Z,103123.11
2018-11-21T02:38:05.307Z,103121.30
2018-11-21T02:40:33.899Z,103116.38
2018-11-21T02:43:02.471Z,103116.84
2018-11-21T02:45:31.059Z,103126.18
2018-11-21T02:47:59.664Z,103126.68
2018-11-21T02:50:28.421Z,103119.95
2018-11-21T02:52:56.972Z,103119.95
2018-11-21T02:55:25.576Z,103115.97
2018-11-21T02:57:54.210Z,103115.03
2018-11-21T03:00:24.892Z,103119.07
2018-11-21T03:02:53.500Z,103115.91
2018-11-21T03:05:22.132Z,103117.73
2018-11-21T03:07:55.004Z,103115.91
2018-11-21T03:10:24.498Z,103117.73
2018-11-21T03:12:53.146Z,103116.38
2018-11-21T03:15:21.788Z,103111.47
2018-11-21T03:17:50.397Z,103116.38
2018-11-21T03:20:19.294Z,103112.81
2018-11-21T03:22:48.152Z,103111.88
2018-11-21T03:25:16.788Z,103100.70
2018-11-21T03:27:45.397Z,103102.05
2018-11-21T03:30:14.031Z,103104.27
2018-11-21T03:32:42.874Z,103102.05
2018-11-21T03:35:11.478Z,103103.80
2018-11-21T03:37:40.095Z,103110.03
2018-11-21T03:40:10.424Z,103105.61
2018-11-21T03:42:39.525Z,103102.92
2018-11-21T03:45:09.750Z,103103.80
2018-11-21T03:47:38.338Z,103099.77
2018-11-21T03:50:08.920Z,103099.36
2018-11-21T03:52:37.789Z,103101.58
2018-11-21T03:55:07.224Z,103102.52
2018-11-21T03:57:36.191Z,103100.23
2018-11-21T04:00:05.264Z,103092.16
2018-11-21T04:02:33.781Z,103097.92
2018-11-21T04:05:02.460Z,103095.73
2018-11-21T04:07:31.087Z,103093.88
2018-11-21T04:09:59.732Z,103093.51
2018-11-21T04:12:28.468Z,103088.13
2018-11-21T04:14:57.037Z,103099.27
2018-11-21T04:17:25.625Z,103103.86
2018-11-21T04:19:54.262Z,103103.39
2018-11-21T04:22:22.818Z,103100.29
2018-11-21T04:24:51.546Z,103107.89
2018-11-21T04:27:20.142Z,103112.90
2018-11-21T04:29:48.764Z,103108.86
2018-11-21T04:32:17.394Z,103108.36
2018-11-21T04:34:46.069Z,103104.83
2018-11-21T04:37:14.652Z,103106.17
2018-11-21T04:39:43.236Z,103110.21
2018-11-21T04:42:11.884Z,103107.52
2018-11-21T04:44:40.439Z,103109.33
2018-11-21T04:47:09.013Z,103109.33
2018-11-21T04:49:37.633Z,103106.64
2018-11-21T04:52:06.256Z,103105.30
2018-11-21T04:54:34.871Z,103114.72
2018-11-21T04:57:03.568Z,103114.72
2018-11-21T04:59:32.175Z,103115.64
2018-11-21T05:02:00.750Z,103109.01
2018-11-21T05:04:29.392Z,103108.92
2018-11-21T05:06:57.999Z,103101.72
2018-11-21T05:09:26.647Z,103109.80
2018-11-21T05:11:55.341Z,103111.14
2018-11-21T05:14:23.950Z,103104.42
2018-11-21T05:16:52.572Z,103111.14
2018-11-21T05:19:21.192Z,103112.58
2018-11-21T05:21:49.782Z,103107.58
2018-11-21T05:24:18.361Z,103111.70
2018-11-21T05:26:46.920Z,103107.20
2018-11-21T05:29:15.557Z,103112.16
2018-11-21T05:31:44.141Z,103118.34
2018-11-21T05:34:12.679Z,103109.01
2018-11-21T05:36:41.262Z,103104.97
2018-11-21T05:39:11.604Z,103106.31
2018-11-21T05:41:40.319Z,103100.94
2018-11-21T05:44:08.953Z,103102.28
2018-11-21T05:46:37.650Z,103104.09
2018-11-21T05:49:06.655Z,103104.56
2018-11-21T05:51:35.368Z,103101.49
2018-11-21T05:54:04.123Z,103109.48
2018-11-21T05:56:32.728Z,103099.18
2018-11-21T05:59:01.331Z,103098.30
2018-11-21T06:01:29.912Z,103111.28
2018-11-21T06:03:58.502Z,103102.84
2018-11-21T06:06:27.069Z,103111.28
2018-11-21T06:08:55.717Z,103116.67
2018-11-21T06:11:24.330Z,103113.98
2018-11-21T06:13:52.921Z,103113.98
2018-11-21T06:16:21.470Z,103112.63
2018-11-21T06:18:50.602Z,103123.86
2018-11-21T06:21:19.179Z,103128.31
2018-11-21T06:23:47.805Z,103131.47
2018-11-21T06:26:16.406Z,103130.07
2018-11-21T06:28:44.966Z,103127.84
2018-11-21T06:31:13.530Z,103132.76
2018-11-21T06:33:42.135Z,103135.83
2018-11-21T06:36:10.791Z,103134.95
2018-11-21T06:38:39.563Z,103136.80
2018-11-21T06:41:08.400Z,103139.40
2018-11-21T06:43:37.140Z,103136.70
2018-11-21T06:46:06.020Z,103140.28
2018-11-21T06:48:34.679Z,103145.20
2018-11-21T06:51:03.243Z,103142.97
2018-11-21T06:53:31.796Z,103145.66
2018-11-21T06:56:00.390Z,103147.80
2018-11-21T06:58:29.088Z,103154.11
2018-11-21T07:00:57.606Z,103144.69
2018-11-21T07:03:26.148Z,103145.57
2018-11-21T07:05:54.831Z,103148.67
2018-11-21T07:08:23.457Z,103150.02
2018-11-21T07:10:52.015Z,103149.55
2018-11-21T07:13:20.609Z,103154.44
2018-11-21T07:15:49.261Z,103146.86
2018-11-21T07:18:17.909Z,103140.14
2018-11-21T07:20:46.519Z,103143.23
2018-11-21T07:23:15.145Z,103151.31
2018-11-21T07:25:43.711Z,103154.41
2018-11-21T07:28:13.185Z,103150.90
2018-11-21T07:30:41.029Z,103158.92
2018-11-21T07:33:09.606Z,103155.34
2018-11-21T07:35:38.180Z,103162.95
2018-11-21T07:38:06.790Z,103163.37
2018-11-21T07:40:35.419Z,103166.05
2018-11-21T07:43:04.139Z,103170.97
2018-11-21T07:45:32.999Z,103173.16
2018-11-21T07:48:01.723Z,103165.09
2018-11-21T07:50:30.444Z,103169.54
2018-11-21T07:52:59.115Z,103169.95
2018-11-21T07:55:27.720Z,103174.83
2018-11-21T07:58:05.141Z,103171.30
2018-11-21T08:00:43.599Z,103171.30
2018-11-21T08:03:12.871Z,103175.33
2018-11-21T08:05:44.447Z,103178.02
2018-11-21T08:08:30.168Z,103176.18
2018-11-21T08:11:23.433Z,103175.33
2018-11-21T08:14:10.075Z,103176.68
2018-11-21T08:16:57.692Z,103180.77
2018-11-21T08:19:57.438Z,103184.34
2018-11-21T08:22:43.945Z,103180.77
2018-11-21T08:25:30.720Z,103178.08
2018-11-21T08:28:16.874Z,103168.75
2018-11-21T08:30:49.074Z,103167.41
2018-11-21T08:33:17.732Z,103177.75
2018-11-21T08:35:46.868Z,103176.41
2018-11-21T08:38:16.137Z,103185.83
2018-11-21T08:40:44.848Z,103182.67
2018-11-21T08:43:13.507Z,103179.05
2018-11-21T08:45:42.186Z,103179.89
2018-11-21T08:48:11.171Z,103175.39
2018-11-21T08:50:39.840Z,103167.78
2018-11-21T08:53:09.119Z,103162.40
2018-11-21T08:55:38.058Z,103168.19
2018-11-21T08:58:08.184Z,103163.74
2018-11-21T09:00:36.964Z,103169.54
2018-11-21T09:03:06.170Z,103165.09
2018-11-21T09:05:35.046Z,103172.70
2018-11-21T09:08:03.930Z,103180.30
2018-11-21T09:13:00.352Z,103175.39
2018-11-21T09:15:29.038Z,103181.65
2018-11-21T09:17:57.613Z,103178.49
2018-11-21T09:20:26.263Z,103175.39
2018-11-21T09:22:54.953Z,103177.15
2018-11-21T09:25:23.596Z,103172.70
2018-11-21T09:27:52.609Z,103172.70
2018-11-21T09:30:22.136Z,103177.20
2018-11-21T09:32:52.400Z,103184.80
2018-11-21T09:35:21.099Z,103178.17
2018-11-21T09:37:49.710Z,103174.13
2018-11-21T09:40:19.877Z,103171.44
2018-11-21T09:42:49.766Z,103170.56
2018-11-21T09:45:19.728Z,103174.59
2018-11-21T09:47:48.294Z,103174.19
2018-11-21T09:50:22.205Z,103171.03
2018-11-21T09:52:50.868Z,103180.86
2018-11-21T09:55:19.519Z,103177.75
2018-11-21T09:57:48.093Z,103177.29
2018-11-21T10:00:53.856Z,103177.75
2018-11-21T10:03:27.860Z,103176.88
2018-11-21T10:05:59.234Z,103183.66
2018-11-21T10:08:53.325Z,103185.05
2018-11-21T10:11:22.295Z,103178.83
2018-11-21T10:13:50.861Z,103178.42
2018-11-21T10:16:19.746Z,103184.22
2018-11-21T10:18:50.409Z,103179.77
2018-11-21T10:21:20.979Z,103191.41
2018-11-21T10:23:49.603Z,103190.53
2018-11-21T10:26:18.287Z,103176.28
2018-11-21T10:28:47.682Z,103183.89
2018-11-21T10:31:16.358Z,103187.84
2018-11-21T10:33:45.033Z,103185.61
2018-11-21T10:36:13.995Z,103182.13
2018-11-21T10:38:42.653Z,103182.13
2018-11-21T10:41:11.479Z,103184.81
2018-11-21T10:43:39.987Z,103192.89
2018-11-21T10:46:08.814Z,103196.00
2018-11-21T10:48:37.764Z,103195.58
2018-11-21T10:51:06.404Z,103188.44
2018-11-21T10:53:34.994Z,103192.02
2018-11-21T10:56:03.821Z,103195.58
2018-11-21T10:58:32.401Z,103190.29
2018-11-21T11:01:19.175Z,103190.67
2018-11-21T11:03:50.589Z,103180.38
2018-11-21T11:06:38.621Z,103184.03
2018-11-21T11:09:38.526Z,103180.05
2018-11-21T11:12:22.995Z,103182.73
2018-11-21T11:15:09.719Z,103187.66
2018-11-21T11:17:52.733Z,103190.81
2018-11-21T11:20:53.489Z,103185.52
2018-11-21T11:23:59.192Z,103176.56
2018-11-21T11:26:47.216Z,103184.63
2018-11-21T11:29:40.857Z,103182.91
2018-11-21T11:32:26.960Z,103177.53
2018-11-21T11:35:13.703Z,103175.30
2018-11-21T11:38:03.385Z,103177.53
2018-11-21T11:40:49.531Z,103171.27
2018-11-21T11:43:52.552Z,103165.89
2018-11-21T11:46:43.280Z,103168.58
2018-11-21T11:49:29.947Z,103162.73
2018-11-21T11:52:23.646Z,103162.23
2018-11-21T11:55:10.225Z,103156.47
2018-11-21T11:57:56.547Z,103157.81
2018-11-21T12:00:44.229Z,103167.61
2018-11-21T12:03:38.025Z,103162.23
2018-11-21T12:06:21.665Z,103162.73
2018-11-21T12:09:14.960Z,103158.20
2018-11-21T12:12:04.972Z,103156.00
2018-11-21T12:14:57.528Z,103173.41
2018-11-21T12:17:44.393Z,103171.59
2018-11-21T12:20:50.395Z,103162.64
2018-11-21T12:23:36.913Z,103159.08
2018-11-21T12:26:18.191Z,103160.42
2018-11-21T12:29:04.443Z,103163.11
2018-11-21T12:32:07.656Z,103161.77
2018-11-21T12:35:01.288Z,103159.08
2018-11-21T12:37:47.514Z,103156.84
2018-11-21T12:40:37.818Z,103161.77
2018-11-21T12:43:24.530Z,103158.20
2018-11-21T12:46:22.263Z,103157.27
2018-11-21T12:49:06.287Z,103167.09
2018-11-21T12:51:52.723Z,103160.88
2018-11-21T12:54:52.269Z,103159.54
2018-11-21T12:57:49.865Z,103169.37
2018-11-21T13:00:40.414Z,103165.80
2018-11-21T13:03:21.325Z,103167.14
2018-11-21T13:06:12.113Z,103156.38
2018-11-21T13:09:05.404Z,103157.27
2018-11-21T13:11:55.374Z,103157.27
2018-11-21T13:14:51.992Z,103153.22
2018-11-21T13:17:32.627Z,103144.27
2018-11-21T13:20:23.462Z,103141.12
2018-11-21T13:23:09.810Z,103140.19
2018-11-21T13:26:06.253Z,103135.27
2018-11-21T13:29:17.170Z,103129.42
2018-11-21T13:32:14.993Z,103130.36
2018-11-21T13:35:02.672Z,103134.39
2018-11-21T13:37:58.140Z,103135.27
2018-11-21T13:40:44.607Z,103130.83
2018-11-21T13:43:41.389Z,103121.87
2018-11-21T13:46:26.162Z,103124.19
2018-11-21T13:49:25.993Z,103123.30
2018-11-21T13:52:13.932Z,103129.09
2018-11-21T13:54:56.721Z,103121.49
2018-11-21T13:57:25.591Z,103116.99
2018-11-21T13:59:54.624Z,103115.64
2018-11-21T14:02:23.383Z,103113.80
2018-11-21T14:04:52.094Z,103114.67
2018-11-21T14:07:20.721Z,103111.05
2018-11-21T14:09:49.388Z,103115.09
2018-11-21T14:12:18.132Z,103118.16
2018-11-21T14:14:46.964Z,103109.24
2018-11-21T14:17:15.891Z,103113.28
2018-11-21T14:19:44.507Z,103102.89
2018-11-21T14:22:13.194Z,103101.95
2018-11-21T14:24:41.751Z,103099.73
2018-11-21T14:27:10.420Z,103097.05
2018-11-21T14:29:38.985Z,103100.61
2018-11-21T14:32:07.626Z,103100.15
2018-11-21T14:34:36.356Z,103091.58
2018-11-21T14:37:05.039Z,103090.73
2018-11-21T14:39:33.689Z,103093.80
2018-11-21T14:42:02.449Z,103090.64
2018-11-21T14:44:31.072Z,103090.64
2018-11-21T14:47:00.069Z,103093.33
2018-11-21T14:49:28.746Z,103086.60
2018-11-21T14:51:57.354Z,103085.72
2018-11-21T14:54:26.038Z,103075.43
2018-11-21T14:56:54.632Z,103080.34
2018-11-21T14:59:23.305Z,103078.63
2018-11-21T15:01:51.934Z,103083.03
2018-11-21T15:04:20.532Z,103066.02
2018-11-21T15:06:49.134Z,103071.89
2018-11-21T15:09:19.117Z,103068.70
2018-11-21T15:11:47.759Z,103072.27
2018-11-21T15:14:16.392Z,103075.05
2018-11-21T15:16:45.040Z,103064.29
2018-11-21T15:19:13.674Z,103063.41
2018-11-21T15:21:42.342Z,103066.98
2018-11-21T15:24:10.916Z,103072.36
2018-11-21T15:26:40.579Z,103078.21
2018-11-21T15:29:09.212Z,103083.59
2018-11-21T15:31:37.851Z,103072.42
2018-11-21T15:34:06.388Z,103076.08
2018-11-21T15:36:34.998Z,103079.64
2018-11-21T15:39:04.707Z,103082.33
2018-11-21T15:41:33.344Z,103086.84
2018-11-21T15:44:02.062Z,103085.03
2018-11-21T15:46:30.706Z,103088.19
2018-11-21T15:48:59.388Z,103092.22
2018-11-21T15:51:28.039Z,103096.25
2018-11-21T15:53:56.622Z,103075.66
2018-11-21T15:56:25.164Z,103085.95
2018-11-21T15:58:53.762Z,103077.48
2018-11-21T16:01:22.328Z,103081.52
2018-11-21T16:03:50.891Z,103076.12
2018-11-21T16:06:19.743Z,103073.44
2018-11-21T16:08:48.535Z,103071.25
2018-11-21T16:11:17.119Z,103075.75
2018-11-21T16:13:47.674Z,103073.94
2018-11-21T16:16:16.322Z,103073.53
2018-11-21T16:18:44.915Z,103069.49
2018-11-21T16:21:13.615Z,103069.96
2018-11-21T16:23:42.253Z,103065.45
2018-11-21T16:26:12.256Z,103063.23
2018-11-21T16:28:40.863Z,103063.23
2018-11-21T16:31:09.419Z,103071.31
2018-11-21T16:33:38.005Z,103068.20
2018-11-21T16:36:06.666Z,103057.95
2018-11-21T16:38:35.262Z,103061.02
2018-11-21T16:41:03.809Z,103058.32
2018-11-21T16:43:32.454Z,103061.89
2018-11-21T16:46:01.081Z,103061.48
2018-11-21T16:48:29.726Z,103058.73
2018-11-21T16:50:58.417Z,103053.77
2018-11-21T16:53:27.055Z,103052.00
2018-11-21T16:55:55.691Z,103055.58
2018-11-21T16:58:24.280Z,103051.07
2018-11-21T17:00:52.923Z,103054.14
2018-11-21T17:03:21.460Z,103050.10
2018-11-21T17:05:50.124Z,103041.16
2018-11-21T17:08:19.216Z,103043.78
2018-11-21T17:10:48.197Z,103042.45
2018-11-21T17:13:17.203Z,103044.25
2018-11-21T17:15:45.822Z,103051.39
2018-11-21T17:18:14.403Z,103050.05
2018-11-21T17:20:44.220Z,103050.89
2018-11-21T17:23:12.862Z,103050.89
2018-11-21T17:25:42.165Z,103045.05
2018-11-21T17:28:10.757Z,103050.89
2018-11-21T17:30:39.444Z,103050.89
2018-11-21T17:33:08.078Z,103049.48
